• Join FlightAware (Why Join?)
  • Login
  • US Flag 
12:15PM EDT


 

Airport Tracker/Info


-or-


 

Live Flight TrackerFlight Track Log ✈ SKW6492 ✈ 19-Aug-2013 ✈ KDEN - KCOD

Flight Track Log - Related Links

Times and Time Zones

All times are in EDT time to prevent confusion due to time zone crossing. See the SKW6492 flight status page for this flight to view local times or setup timezone preferences in your user account.

Time Position Orientation Groundspeed Altitude Reporting Facility
EDT Latitude Longitude Course Direction KTS MPH feet Rate Location/Type
09:53PM 39.9000 -104.5500 346° North 224 258 7,100  Level Denver TRACON
09:54PM 39.9667 -104.5167 21° North 288 331 8,600 1,500 Climbing Denver TRACON
09:55PM 40.1650 -104.7711 347° North  Level FlightAware Approximate
09:55PM 40.0500 -104.4667 25° Northeast 305 351 10,200  Level Denver TRACON
09:56PM 40.2708 -104.8029 347° North  Level FlightAware Approximate
09:56PM 40.1167 -104.4167 30° Northeast 315 362 12,000  Level Denver TRACON
09:57PM 40.3763 -104.8365 346° North  Level FlightAware Approximate
09:57PM 40.1719 -104.4344 346° North 307 353 13,100  Level Denver Center
09:58PM 40.4815 -104.8716 346° North  Level FlightAware Approximate
09:58PM 40.2556 -104.4872 334° Northwest 309 356 14,800  Level Denver Center
09:59PM 40.3403 -104.5442 333° Northwest 342 394 15,400 960 Climbing Denver Center
10:00PM 40.4350 -104.6100 332° Northwest 354 407 16,800 1,080 Climbing Denver Center
10:01PM 40.5236 -104.6697 333° Northwest 358 412 17,700 900 Climbing Denver Center
10:02PM 40.6217 -104.7389 332° Northwest 369 425 18,700 900 Climbing Denver Center
10:03PM 40.7147 -104.8031 332° Northwest 378 435 19,600 840 Climbing Denver Center
10:04PM 40.8089 -104.8583 336° Northwest 368 423 20,500 840 Climbing Denver Center
10:05PM 40.9072 -104.9075 339° North 379 436 21,400 900 Climbing Denver Center
10:06PM 41.0169 -104.9636 339° North 384 442 22,400 840 Climbing Denver Center
10:07PM 41.1100 -105.0169 337° Northwest 381 438 23,200 720 Climbing Denver Center
10:08PM 41.2036 -105.1175 321° Northwest 388 447 23,900 540 Climbing Denver Center
10:09PM 41.2875 -105.2033 322° Northwest 395 455 24,400 480 Climbing Denver Center
10:10PM 41.3853 -105.3067 322° Northwest 401 461 25,000 480 Climbing Denver Center
10:11PM 41.4700 -105.3981 321° Northwest 406 467 25,500 420 Climbing Denver Center
10:12PM 41.5547 -105.4875 322° Northwest 406 467 25,900 240 Climbing Denver Center
10:13PM 41.6542 -105.5931 322° Northwest 409 471 26,000  Climbing Denver Center
10:14PM 41.7431 -105.6878 322° Northwest 422 486 26,000  Level Denver Center
10:15PM 41.8494 -105.8003 322° Northwest 435 501 26,000  Level Denver Center
10:16PM 41.9389 -105.8972 321° Northwest 432 497 26,000  Level Denver Center
10:17PM 42.0458 -106.0122 321° Northwest 436 502 26,000  Level Denver Center
10:18PM 42.1347 -106.1100 321° Northwest 432 497 26,000  Level Denver Center
10:19PM 42.2258 -106.2097 321° Northwest 437 503 26,000  Level Denver Center
10:20PM 42.3333 -106.3278 321° Northwest 443 510 26,000  Level Denver Center
10:21PM 42.4244 -106.4281 321° Northwest 442 509 26,000  Level Denver Center
10:22PM 42.5314 -106.5461 321° Northwest 442 509 26,000  Level Denver Center
10:23PM 42.6233 -106.6481 321° Northwest 445 512 26,000  Level Denver Center
10:25PM 42.7303 -106.7658 321° Northwest 443 510 26,000  Level Denver Center
10:26PM 42.8217 -106.8675 321° Northwest 444 511 26,000  Level Denver Center
10:26PM 42.8967 -106.9525 320° Northwest 442 509 26,000  Level Salt Lake Center
10:27PM 42.9772 -107.0464 320° Northwest 445 512 26,000 -300 Level Salt Lake Center
10:28PM 43.0919 -107.1739 321° Northwest 444 511 25,500 -840 Descending Salt Lake Center
10:29PM 43.1908 -107.2878 320° Northwest 462 532 24,400 -1,020 Descending Salt Lake Center
10:30PM 43.2875 -107.3978 320° Northwest 455 524 23,500 -1,140 Descending Salt Lake Center
10:31PM 43.3789 -107.5031 320° Northwest 433 498 22,100 -1,620 Descending Salt Lake Center
10:32PM 43.4661 -107.6147 317° Northwest 430 495 20,200 -1,860 Descending Salt Lake Center
10:33PM 43.5517 -107.7344 315° West 437 503 18,300 -1,860 Descending Salt Lake Center
10:35PM 43.6322 -107.8447 315° West 413 475 16,400 -1,980 Descending Salt Lake Center
10:36PM 43.7231 -107.9761 314° West 400 460 14,300 -1,500 Descending Salt Lake Center
10:37PM 43.8008 -108.0853 315° West 398 458 13,300 -1,020 Descending Salt Lake Center
10:38PM 43.8786 -108.1928 315° West 398 458 12,200 -720 Descending Salt Lake Center
10:39PM 43.9547 -108.3003 315° West 395 455 11,900 -120 Descending Salt Lake Center
10:40PM 44.0308 -108.4075 315° West 392 451 12,000  Climbing Salt Lake Center
10:41PM 44.1081 -108.5178 314° West 393 452 11,900 -360 Descending Salt Lake Center
10:42PM 44.1842 -108.6269 314° West 393 452 11,300 -600 Descending Salt Lake Center
10:43PM 44.2586 -108.7328 315° West 390 449 10,700 -720 Descending Salt Lake Center
10:44PM 44.3408 -108.8497 315° West 374 430 9,900 -780 Descending Salt Lake Center